Gasport, NY (14067)

6:48 PM EDT on August 04, 2015 (GMT -0400)
Aves-Apis | | Change Station
CLOSE
Current Station
Personal Weather Station
Location: Middleport, NY
Elevation: 427 ft
Nearby Weather Stations

Elev 427 ft 43.24 °N, 78.49 °W | Updated 5 seconds ago

Overcast
Overcast
63.7 °F
Feels Like 63.7 °F
N
1.0
Wind Variable Wind from SSW
Gusts 2.0 mph

Today
High -- | Low -- °F
--% Chance of Precip.
Yesterday
High -- | Low -- °F
Precip. -- in
6:07 AM 8:32 PM
Waning Gibbous, 73% visible
Pressure 29.90 in
Visibility 10.0 miles
Clouds Few 2600 ft
Few 5500 ft
Mostly Cloudy 9000 ft
Mostly Cloudy 16000 ft
Dew Point 60 °F
Humidity 86%
Rainfall 0.20 in
Snow Depth Not available.
UV 1 out of 12
Pollen 7.30 out of 12
Air Quality Not available.
Flu Activity Not available.
SPECI KBUF 042234Z 30007KT 10SM FEW026 FEW055 BKN090 BKN160 18/15 A2990 RMK AO2 WSHFT 2152 RAB05E21 TSE34 TS MOVD E P0001 T01830150 $

More Conditions Fewer Conditions

Pressure 29.90 in
Visibility 10.0 miles
Clouds Few 2600 ft
Few 5500 ft
Mostly Cloudy 9000 ft
Mostly Cloudy 16000 ft
Dew Point 60 °F
Humidity 86%
Rainfall 0.20 in
Snow Depth Not available.
UV 1 out of 12
Pollen 7.30 out of 12
Air Quality Not available.
Flu Activity Not available.
SPECI KBUF 042234Z 30007KT 10SM FEW026 FEW055 BKN090 BKN160 18/15 A2990 RMK AO2 WSHFT 2152 RAB05E21 TSE34 TS MOVD E P0001 T01830150 $

More Conditions Fewer Conditions

10-Day Weather Forecast

×

Almanac

Astronomy

Aug. 04, 2015 Rise Set
Actual Time
Civil Twilight
Nautical Twilight
Astronomical Twilight
Moon
Length of Visible Light
Length of Day
Tomorrow will be .
, % of the Moon is Illuminated

Today's Extremes

State Highs State Lows

Community

WunderPhotos

Upload Photos

1,844,011 photos uploaded!

WunderBlogs® & News

Nearby

Air Quality

  Air Quality AQ Index Pollutant
Not available.

Snow Depth

Station Depth Elevation

Earthquake Activity

City Distance Mag. Time & Date
Minimum magnitude displayed is 2.5.

Coastal Water Temperatures

Place Temperature

Stations

Nearby Weather Stations

Station Location Temp. Windchill Dew Point Humidity Wind Precip. Elev Updated Type